Terminal Aerodrome Forecast
Issued by NWS

Home | Current Version | Previous Version | Text Only | Print | Product List | Glossary On
Versions: 1 2 3 4 5 6 7 8 9 10 11 12 13
000
FTUS43 KIWX 180500
TAFSBN
TAF
KSBN 180524Z 1806/1906 VRB04KT P6SM OVC050
      TEMPO 1806/1809 -SHRA
     FM181300 34008KT P6SM BKN040=

USA.gov is the U.S. government's official web portal to all federal, state and local government web resources and services.